Flight ASX311X

  • Submitted By: Krzysztof H. Blaszkow
  • Departure Airport: Bydgoszcz (EPBY)
  • Arrival Airport: Gdansk im. Lecha Walesy (EPGD)
  • Aircraft: A320-214 (SP-GSA)
  • Flight Time: 00.55.56
  • Date Submitted: 04/14/2017
  • Status: Accepted
Flight Details
Gross Revenue:
(141 load / € 55.00 per unit
€ 7,755.00
Fuel Cost:
(1770.37 fuel used @ 0.45 / unit)
€ 796.67

Additional Log Information:

View Log

[15:11] - Airbus A320 Sioux SP-GSA
[15:11] - Flight ASX311X is ready to depart EPBY with a final destination of EPGD.
[15:11] - Parking Brake Applied
[15:11] - Navigation Lights ON
[15:11] - Beacon Light ON
[15:11] - Boarding
[15:11] - ADF1 - 284.0
[15:11] - ADF2 - 240.0
[15:11] - NAV1 - 109.10
[15:11] - NAV2 - 112.70
[15:11] - COM1 - 122.80
[15:11] - COM2 - 127.80
[15:11] - Transponder - 2000
[15:16] - Parking Brake Released
[15:16] - Pushing Back from the gate
[15:16] - Engine 1 Started
[15:18] - Engine 2 Started
[15:18] - Parking Brake Applied
[15:20] - Flaps to position 2
[15:21] - Flaps to position 0
[15:21] - Flaps to position 1
[15:21] - Flaps to position 2
[15:21] - Parking Brake Released
[15:22] - Taxiing to Runway
[15:22] - Taxi Lights ON 16AGL
[15:24] - Landing Lights ON 16AGL
[15:24] - Strobe Lights ON 16AGL
[15:25] - Taking Off with 141 passengers on board
[15:25] - Take off at 152kts, with a pitch of 10deg and 10637lbs of fuel on board
[15:25] - Wind Heading 286 | Wind Speed 16kts | Temperature 8 deg C
[15:25] - METAR Departure: EPBY 141400Z 30012KT 270V330 9999 FEW025 10/04 Q1010

[15:25] - Taxi Lights OFF 302AGL
[15:25] - Climbing to TOC
[15:26] - Gear up at 1122AGL
[15:26] - Flaps to position 0 at 1883ft and 197kts
[15:27] - Flaps to position 1 at 4806ft and 262kts
[15:27] - Flaps to position 0 at 4820ft and 262kts
[15:28] - Landing Lights OFF 10000AGL
[15:30] - TOC reached
[15:30] - Cruise started
[15:32] - NAV2 - 114.60
[15:38] - NAV1 - 110.30
[15:38] - TOD reached
[15:38] - Descending to destination
[15:41] - NAV2 - 116.10
[15:43] - Landing Lights ON 9652AGL
[15:49] - Flaps to position 1 at 6050ft and 214kts
[15:51] - Landing Shortly
[15:53] - Flaps to position 2 at 3041ft and 169kts
[15:53] - Flaps to position 3 at 3041ft and 169kts
[15:55] - Flaps to position 4 at 2999ft and 170kts
[15:55] - Flaps to position 5 at 2999ft and 166kts
[15:55] - Gear down at 2825AGL
[15:56] - Taxi Lights ON 2605AGL
[15:56] - Flaps to position 2 at 1985ft and 137kts
[15:57] - Flaps to position 3 at 1982ft and 137kts
[15:57] - Flaps to position 5 at 1982ft and 138kts
[15:59] - Landed at -516fpm. With 7216lbs of fuel onboard and a pitch angle of 3deg.
[15:59] - Wind Heading 291 | Wind Speed 17kts | Temperature 7 deg C
[15:59] - Spoilers ON 13ft, hdg 281 and 131kts
[15:59] - METAR Arrival: EPGD 141430Z 29025KT 9999 FEW035 SCT044 08/00 Q1007

[15:59] - Spoilers OFF 13ft, hdg 267 and 95kts
[15:59] - Flaps to position 2
[15:59] - Flaps to position 0
[16:00] - Landing Lights OFF 13AGL
[16:00] - Strobe Lights OFF 13AGL
[16:00] - Taxiing to Gate
[16:02] - Parking Brake Applied
[16:02] - Arrived safely at EPGD. We hope you enjoyed your flight!
[16:02] - Engine 1 Stopped
[16:02] - Engine 2 Stopped
[16:02] - Parking Brake Released
[16:02] - Taxiing to Gate
[16:02] - Taxi Lights OFF 13AGL
[16:07] - Parking Brake Applied
[16:07] - Arrived safely at EPGD. We hope you enjoyed your flight!
[16:07] - Airbus A320 Sioux SP-GSA
[16:07] - MaxSim Rate: 1x
[16:07] - SiouxAcars ver: 1.0.1.2

Comments

Commenter Comment
Krzysztof H. Blaszkow EPGD 141430Z 29025KT 9999 FEW035 SCT044 08/00 Q1007,
Krzysztof H. Blaszkow musze wprawic reke do arbuza, twardawo..

Route Map